sensor_id;sensor_type;location;lat;lon;timestamp;pressure;altitude;pressure_sealevel;temperature;humidity
41515;BME280;27247;48.020;16.720;2023-12-20T00:01:55;99847.44;;;-2.61;100.00
41515;BME280;27247;48.020;16.720;2023-12-20T00:06:05;99843.44;;;-2.52;100.00
41515;BME280;27247;48.020;16.720;2023-12-20T00:10:15;99842.31;;;-2.62;100.00
41515;BME280;27247;48.020;16.720;2023-12-20T00:14:26;99836.22;;;-2.63;100.00
41515;BME280;27247;48.020;16.720;2023-12-20T00:18:36;99835.75;;;-2.69;100.00
41515;BME280;27247;48.020;16.720;2023-12-20T00:22:46;99829.50;;;-2.67;100.00
41515;BME280;27247;48.020;16.720;2023-12-20T00:26:57;99824.72;;;-2.74;100.00
41515;BME280;27247;48.020;16.720;2023-12-20T00:31:07;99810.63;;;-2.72;100.00
41515;BME280;27247;48.020;16.720;2023-12-20T00:35:18;99812.88;;;-2.80;100.00
41515;BME280;27247;48.020;16.720;2023-12-20T00:39:29;99812.59;;;-2.75;100.00
41515;BME280;27247;48.020;16.720;2023-12-20T00:43:39;99819.59;;;-2.76;100.00
41515;BME280;27247;48.020;16.720;2023-12-20T00:47:49;99813.44;;;-2.75;100.00
41515;BME280;27247;48.020;16.720;2023-12-20T00:51:59;99819.13;;;-2.68;100.00
41515;BME280;27247;48.020;16.720;2023-12-20T00:56:10;99825.22;;;-2.68;100.00
41515;BME280;27247;48.020;16.720;2023-12-20T01:00:20;99830.34;;;-2.66;100.00
41515;BME280;27247;48.020;16.720;2023-12-20T01:04:31;99836.50;;;-2.67;100.00
41515;BME280;27247;48.020;16.720;2023-12-20T01:08:41;99836.59;;;-2.69;100.00
41515;BME280;27247;48.020;16.720;2023-12-20T01:12:52;99855.47;;;-2.64;100.00
41515;BME280;27247;48.020;16.720;2023-12-20T01:17:02;99862.75;;;-2.69;100.00
41515;BME280;27247;48.020;16.720;2023-12-20T01:21:12;99859.56;;;-2.74;100.00
41515;BME280;27247;48.020;16.720;2023-12-20T01:25:23;99859.56;;;-2.74;100.00
41515;BME280;27247;48.020;16.720;2023-12-20T01:29:33;99850.50;;;-2.68;100.00
41515;BME280;27247;48.020;16.720;2023-12-20T01:33:43;99826.97;;;-2.68;100.00
41515;BME280;27247;48.020;16.720;2023-12-20T01:37:54;99838.19;;;-2.66;100.00
41515;BME280;27247;48.020;16.720;2023-12-20T01:42:07;99819.13;;;-2.68;100.00
41515;BME280;27247;48.020;16.720;2023-12-20T01:46:18;99820.53;;;-2.63;100.00
41515;BME280;27247;48.020;16.720;2023-12-20T01:50:31;99816.72;;;-2.71;100.00
41515;BME280;27247;48.020;16.720;2023-12-20T01:54:42;99820.44;;;-2.75;100.00
41515;BME280;27247;48.020;16.720;2023-12-20T01:58:53;99806.72;;;-2.79;100.00
41515;BME280;27247;48.020;16.720;2023-12-20T02:03:04;99803.06;;;-2.76;100.00
41515;BME280;27247;48.020;16.720;2023-12-20T02:07:14;99791.41;;;-2.71;100.00
41515;BME280;27247;48.020;16.720;2023-12-20T02:11:26;99804.94;;;-2.78;100.00
41515;BME280;27247;48.020;16.720;2023-12-20T02:15:36;99786.91;;;-2.83;100.00
41515;BME280;27247;48.020;16.720;2023-12-20T02:19:51;99778.50;;;-2.74;100.00
41515;BME280;27247;48.020;16.720;2023-12-20T02:24:02;99767.03;;;-2.71;100.00
41515;BME280;27247;48.020;16.720;2023-12-20T02:28:12;99739.28;;;-2.74;100.00
41515;BME280;27247;48.020;16.720;2023-12-20T02:32:24;99746.84;;;-2.69;100.00
41515;BME280;27247;48.020;16.720;2023-12-20T02:36:37;99750.03;;;-2.64;100.00
41515;BME280;27247;48.020;16.720;2023-12-20T02:40:47;99731.34;;;-2.72;100.00
41515;BME280;27247;48.020;16.720;2023-12-20T02:44:58;99720.50;;;-2.66;100.00
41515;BME280;27247;48.020;16.720;2023-12-20T02:49:08;99722.84;;;-2.62;100.00
41515;BME280;27247;48.020;16.720;2023-12-20T02:53:18;99715.84;;;-2.61;100.00
41515;BME280;27247;48.020;16.720;2023-12-20T02:57:29;99715.94;;;-2.63;100.00
41515;BME280;27247;48.020;16.720;2023-12-20T03:01:43;99704.06;;;-2.68;100.00
41515;BME280;27247;48.020;16.720;2023-12-20T03:05:54;99696.03;;;-2.65;100.00
41515;BME280;27247;48.020;16.720;2023-12-20T03:10:05;99689.31;;;-2.69;100.00
41515;BME280;27247;48.020;16.720;2023-12-20T03:14:16;99682.06;;;-2.78;100.00
41515;BME280;27247;48.020;16.720;2023-12-20T03:18:26;99684.03;;;-2.82;100.00
41515;BME280;27247;48.020;16.720;2023-12-20T03:22:38;99684.03;;;-2.82;100.00
41515;BME280;27247;48.020;16.720;2023-12-20T03:26:48;99688.59;;;-2.85;100.00
41515;BME280;27247;48.020;16.720;2023-12-20T03:30:59;99689.16;;;-2.80;100.00
41515;BME280;27247;48.020;16.720;2023-12-20T03:35:09;99678.31;;;-2.74;100.00
41515;BME280;27247;48.020;16.720;2023-12-20T03:39:20;99681.41;;;-2.82;100.00
41515;BME280;27247;48.020;16.720;2023-12-20T03:43:30;99678.97;;;-2.85;100.00
41515;BME280;27247;48.020;16.720;2023-12-20T03:47:40;99677.03;;;-2.96;100.00
41515;BME280;27247;48.020;16.720;2023-12-20T03:51:50;99682.53;;;-2.86;100.00
41515;BME280;27247;48.020;16.720;2023-12-20T03:56:01;99679.34;;;-2.91;100.00
41515;BME280;27247;48.020;16.720;2023-12-20T04:00:11;99677.84;;;-2.81;100.00
41515;BME280;27247;48.020;16.720;2023-12-20T04:04:22;99695.88;;;-2.76;100.00
41515;BME280;27247;48.020;16.720;2023-12-20T04:08:32;99696.06;;;-2.94;100.00
41515;BME280;27247;48.020;16.720;2023-12-20T04:12:42;99683.19;;;-2.97;100.00
41515;BME280;27247;48.020;16.720;2023-12-20T04:16:53;99679.03;;;-3.29;100.00
41515;BME280;27247;48.020;16.720;2023-12-20T04:21:04;99679.69;;;-3.40;100.00
41515;BME280;27247;48.020;16.720;2023-12-20T04:25:14;99684.28;;;-3.29;100.00
41515;BME280;27247;48.020;16.720;2023-12-20T04:29:24;99687.34;;;-3.37;100.00
41515;BME280;27247;48.020;16.720;2023-12-20T04:33:35;99686.13;;;-3.45;100.00
41515;BME280;27247;48.020;16.720;2023-12-20T04:37:45;99678.56;;;-3.36;100.00
41515;BME280;27247;48.020;16.720;2023-12-20T04:41:55;99663.66;;;-3.19;100.00
41515;BME280;27247;48.020;16.720;2023-12-20T04:46:06;99656.38;;;-3.43;100.00
41515;BME280;27247;48.020;16.720;2023-12-20T04:50:16;99669.44;;;-3.43;100.00
41515;BME280;27247;48.020;16.720;2023-12-20T04:54:26;99664.13;;;-3.41;100.00
41515;BME280;27247;48.020;16.720;2023-12-20T04:58:37;99661.84;;;-3.62;100.00
41515;BME280;27247;48.020;16.720;2023-12-20T05:02:47;99673.88;;;-3.59;100.00
41515;BME280;27247;48.020;16.720;2023-12-20T05:06:57;99658.31;;;-3.46;100.00
41515;BME280;27247;48.020;16.720;2023-12-20T05:11:08;99668.38;;;-3.55;100.00
41515;BME280;27247;48.020;16.720;2023-12-20T05:15:18;99677.06;;;-3.54;100.00
41515;BME280;27247;48.020;16.720;2023-12-20T05:19:28;99695.00;;;-3.34;100.00
41515;BME280;27247;48.020;16.720;2023-12-20T05:23:39;99690.63;;;-3.33;100.00
41515;BME280;27247;48.020;16.720;2023-12-20T05:27:49;99695.56;;;-3.29;100.00
41515;BME280;27247;48.020;16.720;2023-12-20T05:31:59;99695.09;;;-3.21;100.00
41515;BME280;27247;48.020;16.720;2023-12-20T05:36:10;99695.56;;;-3.14;100.00
41515;BME280;27247;48.020;16.720;2023-12-20T05:40:21;99695.13;;;-3.07;100.00
41515;BME280;27247;48.020;16.720;2023-12-20T05:44:31;99685.63;;;-3.08;100.00
41515;BME280;27247;48.020;16.720;2023-12-20T05:48:42;99694.13;;;-3.04;100.00
41515;BME280;27247;48.020;16.720;2023-12-20T05:52:52;99672.28;;;-3.03;100.00
41515;BME280;27247;48.020;16.720;2023-12-20T05:57:02;99684.78;;;-3.08;100.00
41515;BME280;27247;48.020;16.720;2023-12-20T06:01:14;99684.19;;;-3.13;100.00
41515;BME280;27247;48.020;16.720;2023-12-20T06:05:25;99678.31;;;-3.17;100.00
41515;BME280;27247;48.020;16.720;2023-12-20T06:09:35;99689.69;;;-3.18;100.00
41515;BME280;27247;48.020;16.720;2023-12-20T06:13:46;99689.78;;;-3.19;100.00
41515;BME280;27247;48.020;16.720;2023-12-20T06:17:56;99686.06;;;-3.15;100.00
41515;BME280;27247;48.020;16.720;2023-12-20T06:22:06;99681.56;;;-3.13;100.00
41515;BME280;27247;48.020;16.720;2023-12-20T06:26:16;99681.94;;;-3.19;100.00
41515;BME280;27247;48.020;16.720;2023-12-20T06:30:27;99690.16;;;-3.26;100.00
41515;BME280;27247;48.020;16.720;2023-12-20T06:34:37;99682.22;;;-3.38;100.00
41515;BME280;27247;48.020;16.720;2023-12-20T06:38:48;99683.25;;;-3.12;100.00
41515;BME280;27247;48.020;16.720;2023-12-20T06:42:58;99676.63;;;-3.18;100.00
41515;BME280;27247;48.020;16.720;2023-12-20T06:47:09;99688.75;;;-3.17;100.00
41515;BME280;27247;48.020;16.720;2023-12-20T06:51:20;99693.69;;;-3.27;100.00
41515;BME280;27247;48.020;16.720;2023-12-20T06:55:30;99698.91;;;-3.27;100.00
41515;BME280;27247;48.020;16.720;2023-12-20T06:59:41;99711.53;;;-3.19;100.00
41515;BME280;27247;48.020;16.720;2023-12-20T07:03:51;99711.47;;;-3.03;100.00
41515;BME280;27247;48.020;16.720;2023-12-20T07:08:02;99706.63;;;-2.95;100.00
41515;BME280;27247;48.020;16.720;2023-12-20T07:12:12;99704.09;;;-2.82;100.00
41515;BME280;27247;48.020;16.720;2023-12-20T07:16:22;99692.78;;;-2.83;100.00
41515;BME280;27247;48.020;16.720;2023-12-20T07:20:33;99683.94;;;-2.95;100.00
41515;BME280;27247;48.020;16.720;2023-12-20T07:24:43;99663.75;;;-2.93;100.00
41515;BME280;27247;48.020;16.720;2023-12-20T07:28:53;99665.81;;;-2.83;100.00
41515;BME280;27247;48.020;16.720;2023-12-20T07:33:04;99664.28;;;-2.59;100.00
41515;BME280;27247;48.020;16.720;2023-12-20T07:37:15;99664.97;;;-2.43;100.00
41515;BME280;27247;48.020;16.720;2023-12-20T07:41:25;99679.09;;;-2.45;100.00
41515;BME280;27247;48.020;16.720;2023-12-20T07:45:35;99679.53;;;-2.39;100.00
41515;BME280;27247;48.020;16.720;2023-12-20T07:49:46;99686.41;;;-2.23;100.00
41515;BME280;27247;48.020;16.720;2023-12-20T07:53:56;99701.41;;;-1.99;100.00
41515;BME280;27247;48.020;16.720;2023-12-20T07:58:06;99691.59;;;-1.82;100.00
41515;BME280;27247;48.020;16.720;2023-12-20T08:02:17;99675.16;;;-1.72;100.00
41515;BME280;27247;48.020;16.720;2023-12-20T08:06:27;99681.28;;;-1.58;100.00
41515;BME280;27247;48.020;16.720;2023-12-20T08:10:37;99690.09;;;-1.47;100.00
41515;BME280;27247;48.020;16.720;2023-12-20T08:14:47;99694.91;;;-1.15;100.00
41515;BME280;27247;48.020;16.720;2023-12-20T08:18:58;99692.38;;;-0.66;100.00
41515;BME280;27247;48.020;16.720;2023-12-20T08:23:08;99689.16;;;-0.09;100.00
41515;BME280;27247;48.020;16.720;2023-12-20T08:27:18;99682.63;;;0.67;100.00
41515;BME280;27247;48.020;16.720;2023-12-20T08:31:29;99673.84;;;1.35;100.00
41515;BME280;27247;48.020;16.720;2023-12-20T08:35:39;99669.63;;;2.09;100.00
41515;BME280;27247;48.020;16.720;2023-12-20T08:39:52;99676.94;;;2.58;100.00
41515;BME280;27247;48.020;16.720;2023-12-20T08:44:03;99670.66;;;3.01;100.00
41515;BME280;27247;48.020;16.720;2023-12-20T08:48:13;99669.53;;;3.24;100.00
41515;BME280;27247;48.020;16.720;2023-12-20T08:52:24;99689.59;;;3.36;100.00
41515;BME280;27247;48.020;16.720;2023-12-20T08:56:34;99694.63;;;3.49;100.00
41515;BME280;27247;48.020;16.720;2023-12-20T09:00:45;99695.66;;;3.67;100.00
41515;BME280;27247;48.020;16.720;2023-12-20T09:04:55;99694.72;;;3.78;100.00
41515;BME280;27247;48.020;16.720;2023-12-20T09:09:05;99706.16;;;3.98;100.00
41515;BME280;27247;48.020;16.720;2023-12-20T09:13:18;99704.78;;;4.13;100.00
41515;BME280;27247;48.020;16.720;2023-12-20T09:17:28;99707.75;;;4.29;100.00
41515;BME280;27247;48.020;16.720;2023-12-20T09:21:39;99700.94;;;4.36;100.00
41515;BME280;27247;48.020;16.720;2023-12-20T09:25:50;99707.88;;;4.37;100.00
41515;BME280;27247;48.020;16.720;2023-12-20T09:30:00;99698.69;;;4.41;100.00
41515;BME280;27247;48.020;16.720;2023-12-20T09:34:11;99704.97;;;4.50;100.00
41515;BME280;27247;48.020;16.720;2023-12-20T09:38:21;99713.44;;;4.54;100.00
41515;BME280;27247;48.020;16.720;2023-12-20T09:46:52;99697.28;;;4.66;100.00
41515;BME280;27247;48.020;16.720;2023-12-20T09:51:04;99686.28;;;4.71;100.00
41515;BME280;27247;48.020;16.720;2023-12-20T09:55:17;99687.50;;;4.86;100.00
41515;BME280;27247;48.020;16.720;2023-12-20T09:59:28;99671.31;;;4.89;100.00
41515;BME280;27247;48.020;16.720;2023-12-20T10:03:39;99685.09;;;5.02;100.00
41515;BME280;27247;48.020;16.720;2023-12-20T10:07:51;99685.19;;;5.10;100.00
41515;BME280;27247;48.020;16.720;2023-12-20T10:12:01;99683.22;;;5.22;100.00
41515;BME280;27247;48.020;16.720;2023-12-20T10:16:11;99688.50;;;5.32;100.00
41515;BME280;27247;48.020;16.720;2023-12-20T10:20:22;99684.81;;;5.42;99.73
41515;BME280;27247;48.020;16.720;2023-12-20T10:24:32;99682.31;;;5.41;99.50
41515;BME280;27247;48.020;16.720;2023-12-20T10:28:42;99678.16;;;5.38;99.35
41515;BME280;27247;48.020;16.720;2023-12-20T10:32:52;99671.31;;;5.36;98.90
41515;BME280;27247;48.020;16.720;2023-12-20T10:37:03;99675.94;;;5.34;99.23
41515;BME280;27247;48.020;16.720;2023-12-20T10:41:14;99654.50;;;5.27;100.00
41515;BME280;27247;48.020;16.720;2023-12-20T10:45:27;99659.41;;;5.22;100.00
41515;BME280;27247;48.020;16.720;2023-12-20T10:49:39;99657.84;;;5.20;100.00
41515;BME280;27247;48.020;16.720;2023-12-20T10:53:51;99651.16;;;5.16;100.00
41515;BME280;27247;48.020;16.720;2023-12-20T10:58:09;99647.53;;;5.17;100.00
41515;BME280;27247;48.020;16.720;2023-12-20T11:02:21;99644.88;;;5.17;100.00
41515;BME280;27247;48.020;16.720;2023-12-20T11:06:41;99644.06;;;5.16;100.00
41515;BME280;27247;48.020;16.720;2023-12-20T11:11:01;99634.56;;;5.23;100.00
41515;BME280;27247;48.020;16.720;2023-12-20T11:15:14;99611.56;;;5.24;100.00
41515;BME280;27247;48.020;16.720;2023-12-20T11:19:25;99623.09;;;5.32;99.83
41515;BME280;27247;48.020;16.720;2023-12-20T11:23:35;99628.25;;;5.34;99.92
41515;BME280;27247;48.020;16.720;2023-12-20T11:28:06;99629.06;;;5.34;100.00
41515;BME280;27247;48.020;16.720;2023-12-20T11:36:34;99610.63;;;5.42;100.00
41515;BME280;27247;48.020;16.720;2023-12-20T11:40:44;99622.75;;;5.45;99.94
41515;BME280;27247;48.020;16.720;2023-12-20T11:44:59;99617.75;;;5.42;100.00
41515;BME280;27247;48.020;16.720;2023-12-20T11:49:09;99624.56;;;5.44;100.00
41515;BME280;27247;48.020;16.720;2023-12-20T11:53:19;99608.91;;;5.51;100.00
41515;BME280;27247;48.020;16.720;2023-12-20T11:57:31;99604.97;;;5.55;100.00
41515;BME280;27247;48.020;16.720;2023-12-20T12:01:48;99589.16;;;5.63;99.80
41515;BME280;27247;48.020;16.720;2023-12-20T12:05:59;99582.25;;;5.70;99.19
41515;BME280;27247;48.020;16.720;2023-12-20T12:10:11;99563.25;;;5.75;99.42
41515;BME280;27247;48.020;16.720;2023-12-20T12:14:21;99555.53;;;5.82;99.24
41515;BME280;27247;48.020;16.720;2023-12-20T12:18:31;99558.41;;;5.88;98.86
41515;BME280;27247;48.020;16.720;2023-12-20T12:22:42;99552.38;;;5.96;97.58
41515;BME280;27247;48.020;16.720;2023-12-20T12:26:52;99536.16;;;5.99;98.25
41515;BME280;27247;48.020;16.720;2023-12-20T12:31:03;99537.19;;;6.06;97.22
41515;BME280;27247;48.020;16.720;2023-12-20T12:35:14;99543.03;;;6.09;96.71
41515;BME280;27247;48.020;16.720;2023-12-20T12:39:24;99530.13;;;6.15;95.86
41515;BME280;27247;48.020;16.720;2023-12-20T12:43:37;99529.34;;;6.40;95.69
41515;BME280;27247;48.020;16.720;2023-12-20T12:47:47;99531.09;;;6.57;94.42
41515;BME280;27247;48.020;16.720;2023-12-20T12:51:58;99533.56;;;6.85;94.33
41515;BME280;27247;48.020;16.720;2023-12-20T12:56:08;99538.44;;;6.97;92.01
41515;BME280;27247;48.020;16.720;2023-12-20T13:00:19;99533.72;;;6.83;92.16
41515;BME280;27247;48.020;16.720;2023-12-20T13:04:29;99529.28;;;6.92;91.81
41515;BME280;27247;48.020;16.720;2023-12-20T13:08:39;99546.91;;;7.01;90.87
41515;BME280;27247;48.020;16.720;2023-12-20T13:12:50;99536.09;;;6.94;90.00
41515;BME280;27247;48.020;16.720;2023-12-20T13:17:03;99534.06;;;6.88;89.94
41515;BME280;27247;48.020;16.720;2023-12-20T13:21:14;99545.66;;;6.79;89.89
41515;BME280;27247;48.020;16.720;2023-12-20T13:25:24;99553.56;;;6.71;90.60
41515;BME280;27247;48.020;16.720;2023-12-20T13:29:35;99563.31;;;6.62;91.50
41515;BME280;27247;48.020;16.720;2023-12-20T13:33:45;99568.09;;;6.59;91.73
41515;BME280;27247;48.020;16.720;2023-12-20T13:37:55;99576.22;;;6.57;92.31
41515;BME280;27247;48.020;16.720;2023-12-20T13:42:06;99565.91;;;6.54;91.33
41515;BME280;27247;48.020;16.720;2023-12-20T13:46:16;99592.31;;;6.56;91.79
41515;BME280;27247;48.020;16.720;2023-12-20T13:50:27;99585.97;;;6.49;92.65
41515;BME280;27247;48.020;16.720;2023-12-20T13:54:38;99582.63;;;6.47;92.78
41515;BME280;27247;48.020;16.720;2023-12-20T13:58:48;99590.91;;;6.44;92.75
41515;BME280;27247;48.020;16.720;2023-12-20T14:02:59;99567.16;;;6.42;92.84
41515;BME280;27247;48.020;16.720;2023-12-20T14:07:10;99586.69;;;6.33;92.53
41515;BME280;27247;48.020;16.720;2023-12-20T14:11:20;99587.88;;;6.21;92.71
41515;BME280;27247;48.020;16.720;2023-12-20T14:15:31;99585.31;;;6.11;92.71
41515;BME280;27247;48.020;16.720;2023-12-20T14:19:46;99588.66;;;5.95;93.72
41515;BME280;27247;48.020;16.720;2023-12-20T14:23:57;99582.16;;;5.90;93.57
41515;BME280;27247;48.020;16.720;2023-12-20T14:28:07;99587.34;;;5.82;94.13
41515;BME280;27247;48.020;16.720;2023-12-20T14:32:18;99603.09;;;5.83;94.23
41515;BME280;27247;48.020;16.720;2023-12-20T14:36:28;99614.84;;;5.81;94.21
41515;BME280;27247;48.020;16.720;2023-12-20T14:40:40;99611.13;;;5.73;94.04
41515;BME280;27247;48.020;16.720;2023-12-20T14:44:51;99602.34;;;5.73;93.44
41515;BME280;27247;48.020;16.720;2023-12-20T14:49:02;99611.50;;;5.61;94.28
41515;BME280;27247;48.020;16.720;2023-12-20T14:53:13;99619.81;;;5.48;94.88
41515;BME280;27247;48.020;16.720;2023-12-20T14:57:25;99635.06;;;5.36;94.45
41515;BME280;27247;48.020;16.720;2023-12-20T15:01:36;99633.44;;;5.26;95.27
41515;BME280;27247;48.020;16.720;2023-12-20T15:05:46;99622.16;;;5.24;95.99
41515;BME280;27247;48.020;16.720;2023-12-20T15:09:57;99613.38;;;5.23;96.68
41515;BME280;27247;48.020;16.720;2023-12-20T15:14:08;99610.72;;;5.23;96.63
41515;BME280;27247;48.020;16.720;2023-12-20T15:18:18;99611.41;;;5.25;96.57
41515;BME280;27247;48.020;16.720;2023-12-20T15:22:29;99599.72;;;5.18;96.67
41515;BME280;27247;48.020;16.720;2023-12-20T15:26:39;99600.00;;;5.15;96.53
41515;BME280;27247;48.020;16.720;2023-12-20T15:30:50;99603.34;;;5.17;97.10
41515;BME280;27247;48.020;16.720;2023-12-20T15:35:00;99600.44;;;5.20;97.03
41515;BME280;27247;48.020;16.720;2023-12-20T15:39:10;99587.44;;;5.17;97.07
41515;BME280;27247;48.020;16.720;2023-12-20T15:43:24;99591.50;;;5.21;96.81
41515;BME280;27247;48.020;16.720;2023-12-20T15:47:36;99596.81;;;5.21;96.82
41515;BME280;27247;48.020;16.720;2023-12-20T15:51:49;99595.41;;;5.17;96.46
41515;BME280;27247;48.020;16.720;2023-12-20T15:56:00;99593.31;;;5.21;95.89
41515;BME280;27247;48.020;16.720;2023-12-20T16:00:11;99592.59;;;5.28;94.85
41515;BME280;27247;48.020;16.720;2023-12-20T16:04:21;99604.69;;;5.31;94.34
41515;BME280;27247;48.020;16.720;2023-12-20T16:08:31;99614.84;;;5.35;93.86
41515;BME280;27247;48.020;16.720;2023-12-20T16:12:42;99620.59;;;5.31;94.15
41515;BME280;27247;48.020;16.720;2023-12-20T16:16:52;99641.09;;;5.29;94.17
41515;BME280;27247;48.020;16.720;2023-12-20T16:21:02;99649.19;;;5.27;94.33
41515;BME280;27247;48.020;16.720;2023-12-20T16:25:13;99650.34;;;5.15;94.38
41515;BME280;27247;48.020;16.720;2023-12-20T16:29:23;99654.53;;;5.08;95.26
41515;BME280;27247;48.020;16.720;2023-12-20T16:33:34;99651.19;;;5.06;95.68
41515;BME280;27247;48.020;16.720;2023-12-20T16:37:44;99645.34;;;5.02;96.22
41515;BME280;27247;48.020;16.720;2023-12-20T16:41:54;99628.19;;;5.06;96.05
41515;BME280;27247;48.020;16.720;2023-12-20T16:46:05;99636.59;;;5.02;96.89
41515;BME280;27247;48.020;16.720;2023-12-20T16:50:15;99639.38;;;5.00;96.65
41515;BME280;27247;48.020;16.720;2023-12-20T16:54:26;99636.06;;;4.89;97.23
41515;BME280;27247;48.020;16.720;2023-12-20T16:58:36;99634.25;;;4.89;97.67
41515;BME280;27247;48.020;16.720;2023-12-20T17:02:46;99625.63;;;4.87;97.88
41515;BME280;27247;48.020;16.720;2023-12-20T17:06:57;99631.34;;;4.82;97.63
41515;BME280;27247;48.020;16.720;2023-12-20T17:11:07;99630.09;;;4.87;97.29
41515;BME280;27247;48.020;16.720;2023-12-20T17:15:17;99639.25;;;4.92;97.43
41515;BME280;27247;48.020;16.720;2023-12-20T17:19:27;99632.25;;;5.01;96.61
41515;BME280;27247;48.020;16.720;2023-12-20T17:23:40;99624.28;;;5.10;94.96
41515;BME280;27247;48.020;16.720;2023-12-20T17:27:50;99617.84;;;5.13;94.84
41515;BME280;27247;48.020;16.720;2023-12-20T17:32:00;99629.28;;;5.13;93.90
41515;BME280;27247;48.020;16.720;2023-12-20T17:36:11;99634.72;;;5.12;93.18
41515;BME280;27247;48.020;16.720;2023-12-20T17:40:24;99648.59;;;4.96;92.68
41515;BME280;27247;48.020;16.720;2023-12-20T17:44:34;99653.44;;;5.01;92.38
41515;BME280;27247;48.020;16.720;2023-12-20T17:48:45;99663.91;;;5.02;91.28
41515;BME280;27247;48.020;16.720;2023-12-20T17:52:55;99681.44;;;5.03;90.00
41515;BME280;27247;48.020;16.720;2023-12-20T17:57:08;99682.72;;;4.99;90.81
41515;BME280;27247;48.020;16.720;2023-12-20T18:01:19;99694.47;;;4.87;91.32
41515;BME280;27247;48.020;16.720;2023-12-20T18:05:30;99695.00;;;4.91;91.04
41515;BME280;27247;48.020;16.720;2023-12-20T18:09:40;99696.28;;;4.87;90.59
41515;BME280;27247;48.020;16.720;2023-12-20T18:13:51;99704.75;;;4.90;90.31
41515;BME280;27247;48.020;16.720;2023-12-20T18:18:03;99718.56;;;4.84;90.14
41515;BME280;27247;48.020;16.720;2023-12-20T18:22:15;99719.84;;;4.80;90.36
41515;BME280;27247;48.020;16.720;2023-12-20T18:26:25;99739.75;;;4.74;90.90
41515;BME280;27247;48.020;16.720;2023-12-20T18:30:36;99734.06;;;4.69;90.26
41515;BME280;27247;48.020;16.720;2023-12-20T18:34:47;99735.72;;;4.70;89.52
41515;BME280;27247;48.020;16.720;2023-12-20T18:38:58;99735.16;;;4.67;88.94
41515;BME280;27247;48.020;16.720;2023-12-20T18:43:09;99728.19;;;4.66;87.25
41515;BME280;27247;48.020;16.720;2023-12-20T18:47:21;99732.09;;;4.71;86.37
41515;BME280;27247;48.020;16.720;2023-12-20T18:51:33;99731.53;;;4.77;85.06
41515;BME280;27247;48.020;16.720;2023-12-20T18:55:44;99730.13;;;4.83;84.91
41515;BME280;27247;48.020;16.720;2023-12-20T18:59:55;99733.19;;;4.88;83.62
41515;BME280;27247;48.020;16.720;2023-12-20T19:04:06;99739.19;;;4.90;83.95
41515;BME280;27247;48.020;16.720;2023-12-20T19:08:17;99735.97;;;4.96;82.76
41515;BME280;27247;48.020;16.720;2023-12-20T19:12:28;99739.03;;;4.92;82.52
41515;BME280;27247;48.020;16.720;2023-12-20T19:16:39;99741.94;;;4.98;82.16
41515;BME280;27247;48.020;16.720;2023-12-20T19:20:52;99748.63;;;5.02;81.61
41515;BME280;27247;48.020;16.720;2023-12-20T19:25:03;99757.84;;;4.98;82.04
41515;BME280;27247;48.020;16.720;2023-12-20T19:29:18;99783.47;;;4.98;82.04
41515;BME280;27247;48.020;16.720;2023-12-20T19:33:35;99775.69;;;4.96;81.98
41515;BME280;27247;48.020;16.720;2023-12-20T19:37:49;99774.28;;;4.92;82.57
41515;BME280;27247;48.020;16.720;2023-12-20T19:42:00;99764.69;;;4.91;82.48
41515;BME280;27247;48.020;16.720;2023-12-20T19:46:11;99758.13;;;4.86;82.71
41515;BME280;27247;48.020;16.720;2023-12-20T19:50:23;99734.84;;;4.89;82.04
41515;BME280;27247;48.020;16.720;2023-12-20T19:54:34;99733.88;;;4.90;82.10
41515;BME280;27247;48.020;16.720;2023-12-20T19:58:46;99730.53;;;4.88;82.56
41515;BME280;27247;48.020;16.720;2023-12-20T20:02:58;99723.69;;;4.95;81.66
41515;BME280;27247;48.020;16.720;2023-12-20T20:07:10;99715.91;;;4.94;82.57
41515;BME280;27247;48.020;16.720;2023-12-20T20:11:25;99715.34;;;5.00;82.04
41515;BME280;27247;48.020;16.720;2023-12-20T20:15:36;99714.50;;;4.99;82.06
41515;BME280;27247;48.020;16.720;2023-12-20T20:19:47;99718.81;;;5.00;82.68
41515;BME280;27247;48.020;16.720;2023-12-20T20:23:58;99729.94;;;5.04;82.83
41515;BME280;27247;48.020;16.720;2023-12-20T20:28:09;99738.03;;;5.02;82.43
41515;BME280;27247;48.020;16.720;2023-12-20T20:32:21;99737.06;;;5.03;82.44
41515;BME280;27247;48.020;16.720;2023-12-20T20:36:33;99734.16;;;4.97;83.76
41515;BME280;27247;48.020;16.720;2023-12-20T20:40:44;99752.00;;;4.95;83.65
41515;BME280;27247;48.020;16.720;2023-12-20T20:44:55;99756.72;;;4.91;83.46
41515;BME280;27247;48.020;16.720;2023-12-20T20:49:06;99758.56;;;4.91;82.84
41515;BME280;27247;48.020;16.720;2023-12-20T20:53:18;99747.97;;;4.91;84.08
41515;BME280;27247;48.020;16.720;2023-12-20T20:57:33;99742.09;;;4.87;82.56
41515;BME280;27247;48.020;16.720;2023-12-20T21:01:43;99739.19;;;4.90;83.18
41515;BME280;27247;48.020;16.720;2023-12-20T21:05:54;99743.63;;;4.90;82.00
41515;BME280;27247;48.020;16.720;2023-12-20T21:10:05;99738.47;;;4.88;82.03
41515;BME280;27247;48.020;16.720;2023-12-20T21:14:16;99741.41;;;4.95;81.37
41515;BME280;27247;48.020;16.720;2023-12-20T21:18:26;99745.72;;;4.86;82.17
41515;BME280;27247;48.020;16.720;2023-12-20T21:22:38;99735.44;;;4.83;82.19
41515;BME280;27247;48.020;16.720;2023-12-20T21:26:48;99738.06;;;4.83;82.43
41515;BME280;27247;48.020;16.720;2023-12-20T21:30:58;99739.06;;;4.82;82.83
41515;BME280;27247;48.020;16.720;2023-12-20T21:35:09;99737.25;;;4.82;82.44
41515;BME280;27247;48.020;16.720;2023-12-20T21:39:19;99722.88;;;4.85;80.74
41515;BME280;27247;48.020;16.720;2023-12-20T21:43:29;99722.06;;;4.85;81.64
41515;BME280;27247;48.020;16.720;2023-12-20T21:47:40;99719.13;;;4.88;81.50
41515;BME280;27247;48.020;16.720;2023-12-20T21:51:52;99722.06;;;4.85;81.85
41515;BME280;27247;48.020;16.720;2023-12-20T21:56:03;99720.53;;;4.82;81.61
41515;BME280;27247;48.020;16.720;2023-12-20T22:00:14;99715.91;;;4.84;81.85